Terminal Aerodrome Forecast
Issued by NWS Shreveport, LA

Home | Current Version | Previous Version | Text Only | Print | Product List | Glossary On
Versions: 1 2 3 4 5 6 7 8 9 10 11 12
000
FTUS44 KSHV 031120
TAFTXK
TAF
KTXK 031120Z 0312/0412 19007KT P6SM SCT070 SCT250
     FM031500 22007KT P6SM SCT070 SCT250
     FM031800 19008KT P6SM SCT060 SCT250
     FM040100 16006KT P6SM FEW070 SCT250=

USA.gov is the U.S. government's official web portal to all federal, state and local government web resources and services.